DK-0015 weather

Aversi
Zealand, Denmark

Public forecast

Using degrees Celsius for public forecast. Weather courtesy of forecast.io.

METAR (pilot weather report)

Report is more than 6 hours old.

Closest report is Avnø Air Base, 15.8 nm (29.2 km) S. Retrieved 2016/10/04 04:20 UTC (3 years ago):

EKAV 040420Z AUTO ///// 9999NDV NCD ///// Q1039

TAF (pilot weather forecast)

Forecast is more than 12 hours old.

Closest forecast is Copenhagen Kastrup Airport, 32.4 nm (60.0 km) ENE. Retrieved 2019/08/23 00:31 UTC (1 day ago):

TAF EKCH 232300Z 2400/2424 23003KT 9999 FEW040